الصفحة الرئيسية
METAR-TAF:

METAR-TAF

مطار :

مطار البحرين الدولي

البحرين, البحرين

دائرة عرض: 26-16N, خط طول: 050-39E, ارتفاع: 2 متر

مراقبة الطقس الحالي

تاريخ ووقت الإصدار 12 دقيقة قبل الساعة 00:00UTC
ريح 1 عقدةمن اتجاهات متغيرة
درجة الحرارة 27°درجة مئوية
الرطوبة 58%
ضغط 1013 hPa
الرؤية 10 كم أو أكثر
الغيوم لا تقل 1500 م ولا وجود لمزنة ركامية السحاب الأسود

METAR: OBBI 210000Z VRB01KT CAVOK 27/18 Q1013 NOSIG

زمن: 03:12 (00:12 UTC)

توقعات

تاريخ ووقت الإصدار 1ساعة و 12 دقيقة قبل الساعة 23:00UTC
التوقعات صالحة من21 الساعة 00 UTC إلى 22 الساعة 06 UTC
ريح 8 عقدة من الشرق/الجنوب الشرقي
الرؤية: 8000 متر
نظرية الاحتمالات 30% :
مؤقت
من 21 الساعة 07 UTC إلى 21 الساعة 15 UTC
ريح 17 عقدة من الشمال/الشمال الغربي تتزايد حتى 27 عقدة
الرؤية: 5000 متر
غيوم قليلة على ارتفاع 4000 قدم, مزنة ركامية.
غيوم مفككة على ارتفاع 10000 قدم
عاصفة رعدية, مطر

TAF: OBBI 202300Z 2100/2206 11008KT 8000 NSC PROB30 TEMPO 2107/2115 34017G27KT 5000 TSRA FEW040CB BKN100

أرصاد الطقس والتوقعات من أكثر من 4000 مطار (تقارير الطقس للمطار METAR والتنبؤ بالطقس بالمطارTAF).

المحطات المتاحة هي النقط الصفراء والحمراء على الخريطة.

حرك المؤشر فوق النقطة لمعرفة اسم المحطة.

ثم انقر لمعرفة أرصاد وتوقعات الطقس.

لتغيير الخارطة: اضغط على الأزرار الخضراء مع رمز الصليب الأسود للتكبير. على الزر الأخضر مع شرطة للتصغير، أو على الأسهم الخضراء للخرائط المجاورة.


METAR-TAF: